Terri L. Brusco — WDC3034 — position and weather

sailwx.info

Track history (hours):
 
Tides and Currents Weather Stations Pressure Air Temp Water Temp Dewpoint Dewpoint Depression Visibility Wind Speed Wind Dir Waves Ship Positions

Terri L. Brusco

Owner: Brusco Tug & Barge, Inc., Longview, WA. More information available from US FCC via Universal Licensing System and Coast Guard Vessel Documentation Center.

Last reported at 2015-Aug-28 06:34 UTC. Time now 2015-Aug-28 07:28 UTC.
Position N 37°50' W 122°21'.

Length 21 m; draft 3 m.

Type: Tug. MMSI: 367001830.

Date/timePositionNaut miles runAvg speedWind from/ knotsBaromVisibWave heightAir tempDewpointWater temp
2015-Aug-28 06:34N 37°50' W 122°21'0 0.1
2015-Aug-28 05:34N 37°50' W 122°21'0 0.0
2015-Aug-28 04:34N 37°50' W 122°21'0 0.0
2015-Aug-28 03:34N 37°50' W 122°21'0 0.0
2015-Aug-28 02:34N 37°50' W 122°21'0 0.0
2015-Aug-28 01:33N 37°50' W 122°21'0 0.0
2015-Aug-28 00:34N 37°50' W 122°21'0 0.0
2015-Aug-27 23:33N 37°50' W 122°21'2 2.1
2015-Aug-27 22:34N 37°51' W 122°23'3 3.1
2015-Aug-27 21:34N 37°54' W 122°22'2 2.4
2015-Aug-27 20:34N 37°53' W 122°25'4 4.5
2015-Aug-27 19:34N 37°50' W 122°21'0 0.0
2015-Aug-27 18:34N 37°50' W 122°21'0 0.0
2015-Aug-27 17:34N 37°50' W 122°21'0 0.0
2015-Aug-27 16:33N 37°50' W 122°21'0 0.0
2015-Aug-27 15:33N 37°50' W 122°21'0 0.0
2015-Aug-27 14:33N 37°50' W 122°21'0 0.0
2015-Aug-27 13:34N 37°50' W 122°21'2 1.5
2015-Aug-27 12:34N 37°51' W 122°23'7 7.1
2015-Aug-27 11:33N 37°56' W 122°29'0 0.3
2015-Aug-27 10:34N 37°56' W 122°29'4 4.3
2015-Aug-27 09:34N 37°53' W 122°25'5 4.5
2015-Aug-27 08:34N 37°50' W 122°21'0 0.0
2015-Aug-27 07:34N 37°50' W 122°21'0 0.0
2015-Aug-27 06:34N 37°50' W 122°21'0 0.0
2015-Aug-27 05:34N 37°50' W 122°21'0 0.1
2015-Aug-27 04:34N 37°50' W 122°21'2 1.5
2015-Aug-27 03:34N 37°49' W 122°20'1 0.7
2015-Aug-27 02:33N 37°48' W 122°20'2 2.2
2015-Aug-27 01:33N 37°50' W 122°21'7 7.4
2015-Aug-27 00:34N 37°56' W 122°27'7 7.5
2015-Aug-26 23:34N 38°02' W 122°21'8 8.4
2015-Aug-26 22:34N 38°03' W 122°11'8 6.6
2015-Aug-26 21:20N 38°04' W 122°01'5 6.3
2015-Aug-26 20:34N 38°03' W 121°54'2 0.8
2015-Aug-26 18:33N 38°03' W 121°53'5 5.2
2015-Aug-26 17:33N 38°04' W 121°59'5 5.2
2015-Aug-26 16:32N 38°03' W 122°06'6 5.7
2015-Aug-26 15:33N 38°04' W 122°13'8 5.9
2015-Aug-26 14:15N 38°01' W 122°22'6 7.1
2015-Aug-26 13:26N 37°57' W 122°27'5 6.2
2015-Aug-26 12:33N 37°52' W 122°24'5 5.4
2015-Aug-26 11:34N 37°48' W 122°19'2 2.5
2015-Aug-26 10:34N 37°50' W 122°21'0 0.0
2015-Aug-26 09:33N 37°50' W 122°21'4 3.8
2015-Aug-26 08:34N 37°52' W 122°25'8 8.3
2015-Aug-26 07:33N 38°01' W 122°24'7 7.4
2015-Aug-26 06:33N 38°04' W 122°15'7 5.8
2015-Aug-26 05:19N 38°03' W 122°06'4 5.9
2015-Aug-26 04:34N 38°04' W 122°01'7 6.5
2015-Aug-26 03:31N 38°04' W 121°52'1 0.7
2015-Aug-26 02:20N 38°04' W 121°51'0 0.0
2015-Aug-26 01:22N 38°04' W 121°51'3 3.3
2015-Aug-26 00:34N 38°03' W 121°54'6 5.5
2015-Aug-25 23:33N 38°04' W 122°01'7 5.0
2015-Aug-25 22:04N 38°03' W 122°10'8 5.4
2015-Aug-25 20:33N 38°02' W 122°21'6 6.0
2015-Aug-25 19:33N 37°58' W 122°26'6 6.1
2015-Aug-25 18:34N 37°52' W 122°24'6 5.7
2015-Aug-25 17:33N 37°48' W 122°19'3 3.3
2015-Aug-25 16:34N 37°46' W 122°23'2 1.5
2015-Aug-25 15:33N 37°48' W 122°22'2 2.2
2015-Aug-25 14:33N 37°50' W 122°21'0 0.0
2015-Aug-25 13:33N 37°50' W 122°21'0 0.0
2015-Aug-25 12:33N 37°50' W 122°21'0 0.0
2015-Aug-25 11:33N 37°50' W 122°21'0 0.1
2015-Aug-25 10:33N 37°50' W 122°21'0 0.0
2015-Aug-25 09:33N 37°50' W 122°21'0 0.0
2015-Aug-25 08:33N 37°50' W 122°21'2 2.5
2015-Aug-25 07:33N 37°48' W 122°19'5 4.5
2015-Aug-25 06:33N 37°51' W 122°23'8 8.5
2015-Aug-25 05:33N 37°59' W 122°27'0 0.0
2015-Aug-25 04:33N 37°59' W 122°27'0 0.0
2015-Aug-25 03:33N 37°59' W 122°27'0 0.1
2015-Aug-25 02:33N 37°59' W 122°27'10 9.9
2015-Aug-25 01:33N 37°50' W 122°22'2 2.0
2015-Aug-25 00:33N 37°49' W 122°20'1 1.3
2015-Aug-24 23:33N 37°49' W 122°19'1 1.4
2015-Aug-24 22:33N 37°49' W 122°20'3 2.6
2015-Aug-24 21:33N 37°51' W 122°22'8 7.6
2015-Aug-24 20:28N 37°58' W 122°26'10 7.9
2015-Aug-24 19:16N 38°04' W 122°16'5 6.8
2015-Aug-24 18:29N 38°02' W 122°10'7 5.9
2015-Aug-24 17:15N 38°04' W 122°01'4 6.3
2015-Aug-24 16:33N 38°03' W 121°55'3 3.3
2015-Aug-24 15:31N 38°04' W 121°51'0 0.1
2015-Aug-24 14:33N 38°04' W 121°51'5 4.9
2015-Aug-24 13:33N 38°03' W 121°58'16 5.2
2015-Aug-24 10:29N 38°03' W 122°18'6 5.4
2015-Aug-24 09:26N 38°00' W 122°24'4 5.0
2015-Aug-24 08:33N 37°56' W 122°27'6 5.8
2015-Aug-24 07:33N 37°51' W 122°23'2 1.7
2015-Aug-24 06:33N 37°50' W 122°22'7 6.9
2015-Aug-24 05:33N 37°55' W 122°27'14 6.7
2015-Aug-24 03:32N 38°04' W 122°13'12 5.8
2015-Aug-24 01:28N 38°03' W 121°58'15 2.4
2015-Aug-23 19:09N 38°03' W 122°17'5 6.3
2015-Aug-23 18:24N 38°01' W 122°22'5 6.2
2015-Aug-23 17:33N 37°57' W 122°27'6 6.2
2015-Aug-23 16:33N 37°52' W 122°24'4 4.3
2015-Aug-23 15:33N 37°49' W 122°20'0 0.0
2015-Aug-23 14:33N 37°49' W 122°20'0 0.0
2015-Aug-23 13:33N 37°49' W 122°20'1 1.3
2015-Aug-23 12:34N 37°49' W 122°21'1 0.6
2015-Aug-23 11:33N 37°50' W 122°22'7 6.5
2015-Aug-23 10:33N 37°55' W 122°27'7 7.3
2015-Aug-23 09:33N 38°01' W 122°22'8 7.9
2015-Aug-23 08:33N 38°03' W 122°12'17 7.6
2015-Aug-23 06:21N 38°04' W 121°51'16 4.1
2015-Aug-23 02:28N 38°03' W 122°12'8 7.9
2015-Aug-23 01:26N 38°02' W 122°22'6 7.4
2015-Aug-23 00:33N 37°56' W 122°27'7 6.8
2015-Aug-22 23:33N 37°50' W 122°23'3 3.1
2015-Aug-22 22:33N 37°49' W 122°19'1 0.9
2015-Aug-22 21:34N 37°49' W 122°20'6 6.3
2015-Aug-22 20:34N 37°53' W 122°25'7 7.0
2015-Aug-22 19:33N 38°00' W 122°24'9 8.3
2015-Aug-22 18:28N 38°04' W 122°14'15 7.1
2015-Aug-22 16:26N 38°03' W 121°55'12 2.3
2015-Aug-22 11:10N 38°03' W 122°11'6 5.5
2015-Aug-22 10:06N 38°03' W 122°18'5 5.7
2015-Aug-22 09:09N 38°00' W 122°24'3 5.9
2015-Aug-22 08:33N 37°58' W 122°27'5 5.3
2015-Aug-22 07:33N 37°52' W 122°25'6 6.0
2015-Aug-22 06:34N 37°48' W 122°20'3 2.6
2015-Aug-22 05:33N 37°50' W 122°22'9 8.2
2015-Aug-22 04:26N 37°59' W 122°26'11 7.9
2015-Aug-22 03:05N 38°04' W 122°14'4 6.9
2015-Aug-22 02:29N 38°02' W 122°09'6 6.4
2015-Aug-22 01:29N 38°04' W 122°01'9 1.3
2015-Aug-21 18:32N 38°04' W 122°13'7 5.4
2015-Aug-21 17:08N 38°02' W 122°22'3 5.7
2015-Aug-21 16:33N 37°59' W 122°25'5 5.4
2015-Aug-21 15:33N 37°54' W 122°26'7 6.9
2015-Aug-21 14:33N 37°48' W 122°21'2 1.8
2015-Aug-21 13:34N 37°50' W 122°22'6 6.5
2015-Aug-21 12:33N 37°55' W 122°27'6 5.9
2015-Aug-21 11:33N 38°01' W 122°24'7 6.4
2015-Aug-21 10:24N 38°04' W 122°15'15 7.1
2015-Aug-21 08:17N 38°03' W 121°56'0 0.1
2015-Aug-21 05:32N 38°03' W 121°56'12 5.6
2015-Aug-21 03:24N 38°03' W 122°11'6 6.6
2015-Aug-21 02:26N 38°03' W 122°19'6 6.7
2015-Aug-21 01:33N 37°60' W 122°25'6 6.1
2015-Aug-21 00:33N 37°54' W 122°26'5 5.4
2015-Aug-20 23:34N 37°50' W 122°21'2 2.1
2015-Aug-20 22:34N 37°48' W 122°20'2 2.1
2015-Aug-20 21:34N 37°50' W 122°21'0 0.1
2015-Aug-20 20:33N 37°50' W 122°21'4 4.3
2015-Aug-20 19:34N 37°53' W 122°25'7 6.9
2015-Aug-20 18:33N 37°60' W 122°25'8 8.5
2015-Aug-20 17:33N 38°04' W 122°15'16 7.7
2015-Aug-20 15:32N 38°03' W 121°55'8 1.6
2015-Aug-20 10:22N 38°03' W 122°06'4 5.1
2015-Aug-20 09:30N 38°03' W 122°11'6 6.1
2015-Aug-20 08:34N 38°03' W 122°18'6 5.8
2015-Aug-20 07:33N 37°60' W 122°24'6 5.6
2015-Aug-20 06:33N 37°55' W 122°27'6 5.9
2015-Aug-20 05:33N 37°50' W 122°22'3 3.2
2015-Aug-20 04:34N 37°48' W 122°19'1 1.1
2015-Aug-20 03:34N 37°48' W 122°20'2 1.6
2015-Aug-20 02:33N 37°50' W 122°21'0 0.0
2015-Aug-20 01:33N 37°50' W 122°21'0 0.0
2015-Aug-20 00:34N 37°50' W 122°21'0 0.0
2015-Aug-19 23:34N 37°50' W 122°21'0 0.0
2015-Aug-19 22:33N 37°50' W 122°21'2 2.3
2015-Aug-19 21:33N 37°49' W 122°18'2 2.3
2015-Aug-19 20:33N 37°50' W 122°21'0 0.1
2015-Aug-19 19:34N 37°50' W 122°21'1 0.8
2015-Aug-19 18:33N 37°50' W 122°22'1 1.0
2015-Aug-19 17:33N 37°49' W 122°21'0 0.5
2015-Aug-19 16:34N 37°50' W 122°21'0 0.1
2015-Aug-19 15:34N 37°50' W 122°21'2 2.0
2015-Aug-19 14:33N 37°51' W 122°23'8 7.8
2015-Aug-19 13:33N 37°59' W 122°26'9 7.1
2015-Aug-19 12:15N 38°04' W 122°16'4 5.7
2015-Aug-19 11:33N 38°03' W 122°11'11 5.6
2015-Aug-19 09:33N 38°03' W 121°57'4 2.1
2015-Aug-19 07:33N 38°04' W 121°51'3 2.2
2015-Aug-19 06:24N 38°03' W 121°54'4 4.7
2015-Aug-19 05:34N 38°04' W 121°59'9 4.5
2015-Aug-19 03:31N 38°03' W 122°10'6 4.9
2015-Aug-19 02:21N 38°03' W 122°18'5 5.6
2015-Aug-19 01:24N 38°01' W 122°24'5 5.5
2015-Aug-19 00:33N 37°57' W 122°27'6 6.0
2015-Aug-18 23:34N 37°51' W 122°24'4 4.0
2015-Aug-18 22:33N 37°49' W 122°20'2 1.6
2015-Aug-18 21:33N 37°50' W 122°21'0 0.1
2015-Aug-18 20:33N 37°50' W 122°21'0 0.0
2015-Aug-18 19:33N 37°50' W 122°21'0 0.0
2015-Aug-18 18:34N 37°50' W 122°21'0 0.0
2015-Aug-18 17:33N 37°50' W 122°21'0 0.1
2015-Aug-18 16:33N 37°50' W 122°21'0 0.0
2015-Aug-18 15:33N 37°50' W 122°21'0 0.1
2015-Aug-18 14:34N 37°50' W 122°21'0 0.0
2015-Aug-18 13:33N 37°50' W 122°21'0 0.4
2015-Aug-18 12:34N 37°50' W 122°22'6 5.7
2015-Aug-18 11:33N 37°54' W 122°27'6 6.2
2015-Aug-18 10:33N 38°00' W 122°24'11 5.3
2015-Aug-18 08:33N 38°03' W 122°11'6 5.4
2015-Aug-18 07:24N 38°04' W 122°03'  
Track history (hours):
 
Tides and Currents Weather Stations Pressure Air Temp Water Temp Dewpoint Dewpoint Depression Visibility Wind Speed Wind Dir Waves Ship Positions

Terri L. Brusco

Owner: Brusco Tug & Barge, Inc., Longview, WA. More information available from US FCC via Universal Licensing System and Coast Guard Vessel Documentation Center.

Last reported at 2015-Aug-28 06:34 UTC. Time now 2015-Aug-28 07:28 UTC.
Position N 37°50' W 122°21'.

Length 21 m; draft 3 m.

Type: Tug. MMSI: 367001830.

Date/timePositionNaut miles runAvg speedWind from/ knotsBaromVisibWave heightAir tempDewpointWater temp
2015-Aug-28 06:34N 37°50' W 122°21'0 0.1
2015-Aug-28 05:34N 37°50' W 122°21'0 0.0
2015-Aug-28 04:34N 37°50' W 122°21'0 0.0
2015-Aug-28 03:34N 37°50' W 122°21'0 0.0
2015-Aug-28 02:34N 37°50' W 122°21'0 0.0
2015-Aug-28 01:33N 37°50' W 122°21'0 0.0
2015-Aug-28 00:34N 37°50' W 122°21'0 0.0
2015-Aug-27 23:33N 37°50' W 122°21'2 2.1
2015-Aug-27 22:34N 37°51' W 122°23'3 3.1
2015-Aug-27 21:34N 37°54' W 122°22'2 2.4
2015-Aug-27 20:34N 37°53' W 122°25'4 4.5
2015-Aug-27 19:34N 37°50' W 122°21'0 0.0
2015-Aug-27 18:34N 37°50' W 122°21'0 0.0
2015-Aug-27 17:34N 37°50' W 122°21'0 0.0
2015-Aug-27 16:33N 37°50' W 122°21'0 0.0
2015-Aug-27 15:33N 37°50' W 122°21'0 0.0
2015-Aug-27 14:33N 37°50' W 122°21'0 0.0
2015-Aug-27 13:34N 37°50' W 122°21'2 1.5
2015-Aug-27 12:34N 37°51' W 122°23'7 7.1
2015-Aug-27 11:33N 37°56' W 122°29'0 0.3
2015-Aug-27 10:34N 37°56' W 122°29'4 4.3
2015-Aug-27 09:34N 37°53' W 122°25'5 4.5
2015-Aug-27 08:34N 37°50' W 122°21'0 0.0
2015-Aug-27 07:34N 37°50' W 122°21'0 0.0
2015-Aug-27 06:34N 37°50' W 122°21'0 0.0
2015-Aug-27 05:34N 37°50' W 122°21'0 0.1
2015-Aug-27 04:34N 37°50' W 122°21'2 1.5
2015-Aug-27 03:34N 37°49' W 122°20'1 0.7
2015-Aug-27 02:33N 37°48' W 122°20'2 2.2
2015-Aug-27 01:33N 37°50' W 122°21'7 7.4
2015-Aug-27 00:34N 37°56' W 122°27'7 7.5
2015-Aug-26 23:34N 38°02' W 122°21'8 8.4
2015-Aug-26 22:34N 38°03' W 122°11'8 6.6
2015-Aug-26 21:20N 38°04' W 122°01'5 6.3
2015-Aug-26 20:34N 38°03' W 121°54'2 0.8
2015-Aug-26 18:33N 38°03' W 121°53'5 5.2
2015-Aug-26 17:33N 38°04' W 121°59'5 5.2
2015-Aug-26 16:32N 38°03' W 122°06'6 5.7
2015-Aug-26 15:33N 38°04' W 122°13'8 5.9
2015-Aug-26 14:15N 38°01' W 122°22'6 7.1
2015-Aug-26 13:26N 37°57' W 122°27'5 6.2
2015-Aug-26 12:33N 37°52' W 122°24'5 5.4
2015-Aug-26 11:34N 37°48' W 122°19'2 2.5
2015-Aug-26 10:34N 37°50' W 122°21'0 0.0
2015-Aug-26 09:33N 37°50' W 122°21'4 3.8
2015-Aug-26 08:34N 37°52' W 122°25'8 8.3
2015-Aug-26 07:33N 38°01' W 122°24'7 7.4
2015-Aug-26 06:33N 38°04' W 122°15'7 5.8
2015-Aug-26 05:19N 38°03' W 122°06'4 5.9
2015-Aug-26 04:34N 38°04' W 122°01'7 6.5
2015-Aug-26 03:31N 38°04' W 121°52'1 0.7
2015-Aug-26 02:20N 38°04' W 121°51'0 0.0
2015-Aug-26 01:22N 38°04' W 121°51'3 3.3
2015-Aug-26 00:34N 38°03' W 121°54'6 5.5
2015-Aug-25 23:33N 38°04' W 122°01'7 5.0
2015-Aug-25 22:04N 38°03' W 122°10'8 5.4
2015-Aug-25 20:33N 38°02' W 122°21'6 6.0
2015-Aug-25 19:33N 37°58' W 122°26'6 6.1
2015-Aug-25 18:34N 37°52' W 122°24'6 5.7
2015-Aug-25 17:33N 37°48' W 122°19'3 3.3
2015-Aug-25 16:34N 37°46' W 122°23'2 1.5
2015-Aug-25 15:33N 37°48' W 122°22'2 2.2
2015-Aug-25 14:33N 37°50' W 122°21'0 0.0
2015-Aug-25 13:33N 37°50' W 122°21'0 0.0
2015-Aug-25 12:33N 37°50' W 122°21'0 0.0
2015-Aug-25 11:33N 37°50' W 122°21'0 0.1
2015-Aug-25 10:33N 37°50' W 122°21'0 0.0
2015-Aug-25 09:33N 37°50' W 122°21'0 0.0
2015-Aug-25 08:33N 37°50' W 122°21'2 2.5
2015-Aug-25 07:33N 37°48' W 122°19'5 4.5
2015-Aug-25 06:33N 37°51' W 122°23'8 8.5
2015-Aug-25 05:33N 37°59' W 122°27'0 0.0
2015-Aug-25 04:33N 37°59' W 122°27'0 0.0
2015-Aug-25 03:33N 37°59' W 122°27'0 0.1
2015-Aug-25 02:33N 37°59' W 122°27'10 9.9
2015-Aug-25 01:33N 37°50' W 122°22'2 2.0
2015-Aug-25 00:33N 37°49' W 122°20'1 1.3
2015-Aug-24 23:33N 37°49' W 122°19'1 1.4
2015-Aug-24 22:33N 37°49' W 122°20'3 2.6
2015-Aug-24 21:33N 37°51' W 122°22'8 7.6
2015-Aug-24 20:28N 37°58' W 122°26'10 7.9
2015-Aug-24 19:16N 38°04' W 122°16'5 6.8
2015-Aug-24 18:29N 38°02' W 122°10'7 5.9
2015-Aug-24 17:15N 38°04' W 122°01'4 6.3
2015-Aug-24 16:33N 38°03' W 121°55'3 3.3
2015-Aug-24 15:31N 38°04' W 121°51'0 0.1
2015-Aug-24 14:33N 38°04' W 121°51'5 4.9
2015-Aug-24 13:33N 38°03' W 121°58'16 5.2
2015-Aug-24 10:29N 38°03' W 122°18'6 5.4
2015-Aug-24 09:26N 38°00' W 122°24'4 5.0
2015-Aug-24 08:33N 37°56' W 122°27'6 5.8
2015-Aug-24 07:33N 37°51' W 122°23'2 1.7
2015-Aug-24 06:33N 37°50' W 122°22'7 6.9
2015-Aug-24 05:33N 37°55' W 122°27'14 6.7
2015-Aug-24 03:32N 38°04' W 122°13'12 5.8
2015-Aug-24 01:28N 38°03' W 121°58'15 2.4
2015-Aug-23 19:09N 38°03' W 122°17'5 6.3
2015-Aug-23 18:24N 38°01' W 122°22'5 6.2
2015-Aug-23 17:33N 37°57' W 122°27'6 6.2
2015-Aug-23 16:33N 37°52' W 122°24'4 4.3
2015-Aug-23 15:33N 37°49' W 122°20'0 0.0
2015-Aug-23 14:33N 37°49' W 122°20'0 0.0
2015-Aug-23 13:33N 37°49' W 122°20'1 1.3
2015-Aug-23 12:34N 37°49' W 122°21'1 0.6
2015-Aug-23 11:33N 37°50' W 122°22'7 6.5
2015-Aug-23 10:33N 37°55' W 122°27'7 7.3
2015-Aug-23 09:33N 38°01' W 122°22'8 7.9
2015-Aug-23 08:33N 38°03' W 122°12'17 7.6
2015-Aug-23 06:21N 38°04' W 121°51'16 4.1
2015-Aug-23 02:28N 38°03' W 122°12'8 7.9
2015-Aug-23 01:26N 38°02' W 122°22'6 7.4
2015-Aug-23 00:33N 37°56' W 122°27'7 6.8
2015-Aug-22 23:33N 37°50' W 122°23'3 3.1
2015-Aug-22 22:33N 37°49' W 122°19'1 0.9
2015-Aug-22 21:34N 37°49' W 122°20'6 6.3
2015-Aug-22 20:34N 37°53' W 122°25'7 7.0
2015-Aug-22 19:33N 38°00' W 122°24'9 8.3
2015-Aug-22 18:28N 38°04' W 122°14'15 7.1
2015-Aug-22 16:26N 38°03' W 121°55'12 2.3
2015-Aug-22 11:10N 38°03' W 122°11'6 5.5
2015-Aug-22 10:06N 38°03' W 122°18'5 5.7
2015-Aug-22 09:09N 38°00' W 122°24'3 5.9
2015-Aug-22 08:33N 37°58' W 122°27'5 5.3
2015-Aug-22 07:33N 37°52' W 122°25'6 6.0
2015-Aug-22 06:34N 37°48' W 122°20'3 2.6
2015-Aug-22 05:33N 37°50' W 122°22'9 8.2
2015-Aug-22 04:26N 37°59' W 122°26'11 7.9
2015-Aug-22 03:05N 38°04' W 122°14'4 6.9
2015-Aug-22 02:29N 38°02' W 122°09'6 6.4
2015-Aug-22 01:29N 38°04' W 122°01'9 1.3
2015-Aug-21 18:32N 38°04' W 122°13'7 5.4
2015-Aug-21 17:08N 38°02' W 122°22'3 5.7
2015-Aug-21 16:33N 37°59' W 122°25'5 5.4
2015-Aug-21 15:33N 37°54' W 122°26'7 6.9
2015-Aug-21 14:33N 37°48' W 122°21'2 1.8
2015-Aug-21 13:34N 37°50' W 122°22'6 6.5
2015-Aug-21 12:33N 37°55' W 122°27'6 5.9
2015-Aug-21 11:33N 38°01' W 122°24'7 6.4
2015-Aug-21 10:24N 38°04' W 122°15'15 7.1
2015-Aug-21 08:17N 38°03' W 121°56'0 0.1
2015-Aug-21 05:32N 38°03' W 121°56'12 5.6
2015-Aug-21 03:24N 38°03' W 122°11'6 6.6
2015-Aug-21 02:26N 38°03' W 122°19'6 6.7
2015-Aug-21 01:33N 37°60' W 122°25'6 6.1
2015-Aug-21 00:33N 37°54' W 122°26'5 5.4
2015-Aug-20 23:34N 37°50' W 122°21'2 2.1
2015-Aug-20 22:34N 37°48' W 122°20'2 2.1
2015-Aug-20 21:34N 37°50' W 122°21'0 0.1
2015-Aug-20 20:33N 37°50' W 122°21'4 4.3
2015-Aug-20 19:34N 37°53' W 122°25'7 6.9
2015-Aug-20 18:33N 37°60' W 122°25'8 8.5
2015-Aug-20 17:33N 38°04' W 122°15'16 7.7
2015-Aug-20 15:32N 38°03' W 121°55'8 1.6
2015-Aug-20 10:22N 38°03' W 122°06'4 5.1
2015-Aug-20 09:30N 38°03' W 122°11'6 6.1
2015-Aug-20 08:34N 38°03' W 122°18'6 5.8
2015-Aug-20 07:33N 37°60' W 122°24'6 5.6
2015-Aug-20 06:33N 37°55' W 122°27'6 5.9
2015-Aug-20 05:33N 37°50' W 122°22'3 3.2
2015-Aug-20 04:34N 37°48' W 122°19'1 1.1
2015-Aug-20 03:34N 37°48' W 122°20'2 1.6
2015-Aug-20 02:33N 37°50' W 122°21'0 0.0
2015-Aug-20 01:33N 37°50' W 122°21'0 0.0
2015-Aug-20 00:34N 37°50' W 122°21'0 0.0
2015-Aug-19 23:34N 37°50' W 122°21'0 0.0
2015-Aug-19 22:33N 37°50' W 122°21'2 2.3
2015-Aug-19 21:33N 37°49' W 122°18'2 2.3
2015-Aug-19 20:33N 37°50' W 122°21'0 0.1
2015-Aug-19 19:34N 37°50' W 122°21'1 0.8
2015-Aug-19 18:33N 37°50' W 122°22'1 1.0
2015-Aug-19 17:33N 37°49' W 122°21'0 0.5
2015-Aug-19 16:34N 37°50' W 122°21'0 0.1
2015-Aug-19 15:34N 37°50' W 122°21'2 2.0
2015-Aug-19 14:33N 37°51' W 122°23'8 7.8
2015-Aug-19 13:33N 37°59' W 122°26'9 7.1
2015-Aug-19 12:15N 38°04' W 122°16'4 5.7
2015-Aug-19 11:33N 38°03' W 122°11'11 5.6
2015-Aug-19 09:33N 38°03' W 121°57'4 2.1
2015-Aug-19 07:33N 38°04' W 121°51'3 2.2
2015-Aug-19 06:24N 38°03' W 121°54'4 4.7
2015-Aug-19 05:34N 38°04' W 121°59'9 4.5
2015-Aug-19 03:31N 38°03' W 122°10'6 4.9
2015-Aug-19 02:21N 38°03' W 122°18'5 5.6
2015-Aug-19 01:24N 38°01' W 122°24'5 5.5
2015-Aug-19 00:33N 37°57' W 122°27'6 6.0
2015-Aug-18 23:34N 37°51' W 122°24'4 4.0
2015-Aug-18 22:33N 37°49' W 122°20'2 1.6
2015-Aug-18 21:33N 37°50' W 122°21'0 0.1
2015-Aug-18 20:33N 37°50' W 122°21'0 0.0
2015-Aug-18 19:33N 37°50' W 122°21'0 0.0
2015-Aug-18 18:34N 37°50' W 122°21'0 0.0
2015-Aug-18 17:33N 37°50' W 122°21'0 0.1
2015-Aug-18 16:33N 37°50' W 122°21'0 0.0
2015-Aug-18 15:33N 37°50' W 122°21'0 0.1
2015-Aug-18 14:34N 37°50' W 122°21'0 0.0
2015-Aug-18 13:33N 37°50' W 122°21'0 0.4
2015-Aug-18 12:34N 37°50' W 122°22'6 5.7
2015-Aug-18 11:33N 37°54' W 122°27'6 6.2
2015-Aug-18 10:33N 38°00' W 122°24'11 5.3
2015-Aug-18 08:33N 38°03' W 122°11'6 5.4
2015-Aug-18 07:24N 38°04' W 122°03'  

Dump ship's entire track history